sensor_id;sensor_type;location;lat;lon;timestamp;P1;durP1;ratioP1;P2;durP2;ratioP2
62179;SDS011;48172;53.374;10.722;2022-10-31T00:00:46;5.85;;;5.22;;
62179;SDS011;48172;53.374;10.722;2022-10-31T00:03:13;6.32;;;5.70;;
62179;SDS011;48172;53.374;10.722;2022-10-31T00:05:48;6.47;;;5.78;;
62179;SDS011;48172;53.374;10.722;2022-10-31T00:08:16;6.63;;;6.03;;
62179;SDS011;48172;53.374;10.722;2022-10-31T00:10:43;6.00;;;5.40;;
62179;SDS011;48172;53.374;10.722;2022-10-31T00:13:12;6.40;;;5.78;;
62179;SDS011;48172;53.374;10.722;2022-10-31T00:15:40;5.72;;;5.22;;
62179;SDS011;48172;53.374;10.722;2022-10-31T00:18:10;6.68;;;5.72;;
62179;SDS011;48172;53.374;10.722;2022-10-31T00:20:37;7.53;;;5.70;;
62179;SDS011;48172;53.374;10.722;2022-10-31T00:23:04;6.15;;;5.55;;
62179;SDS011;48172;53.374;10.722;2022-10-31T00:25:35;5.55;;;4.97;;
62179;SDS011;48172;53.374;10.722;2022-10-31T00:28:04;5.80;;;5.30;;
62179;SDS011;48172;53.374;10.722;2022-10-31T00:30:33;6.25;;;5.65;;
62179;SDS011;48172;53.374;10.722;2022-10-31T00:33:00;6.38;;;5.70;;
62179;SDS011;48172;53.374;10.722;2022-10-31T00:35:27;6.10;;;5.50;;
62179;SDS011;48172;53.374;10.722;2022-10-31T00:37:53;5.68;;;5.15;;
62179;SDS011;48172;53.374;10.722;2022-10-31T00:40:20;7.07;;;5.70;;
62179;SDS011;48172;53.374;10.722;2022-10-31T00:42:46;5.82;;;5.32;;
62179;SDS011;48172;53.374;10.722;2022-10-31T00:45:13;5.80;;;5.20;;
62179;SDS011;48172;53.374;10.722;2022-10-31T00:47:39;5.80;;;5.20;;
62179;SDS011;48172;53.374;10.722;2022-10-31T00:50:06;5.63;;;5.00;;
62179;SDS011;48172;53.374;10.722;2022-10-31T00:52:33;6.13;;;5.38;;
62179;SDS011;48172;53.374;10.722;2022-10-31T00:54:59;5.43;;;4.93;;
62179;SDS011;48172;53.374;10.722;2022-10-31T00:57:26;6.13;;;5.45;;
62179;SDS011;48172;53.374;10.722;2022-10-31T00:59:52;5.97;;;5.38;;
62179;SDS011;48172;53.374;10.722;2022-10-31T01:02:19;5.60;;;5.10;;
62179;SDS011;48172;53.374;10.722;2022-10-31T01:04:46;5.45;;;4.95;;
62179;SDS011;48172;53.374;10.722;2022-10-31T01:07:12;5.20;;;4.70;;
62179;SDS011;48172;53.374;10.722;2022-10-31T01:09:40;5.40;;;4.90;;
62179;SDS011;48172;53.374;10.722;2022-10-31T01:12:07;5.63;;;5.13;;
62179;SDS011;48172;53.374;10.722;2022-10-31T01:14:34;6.00;;;5.40;;
62179;SDS011;48172;53.374;10.722;2022-10-31T01:17:00;5.70;;;5.10;;
62179;SDS011;48172;53.374;10.722;2022-10-31T01:19:27;5.45;;;4.95;;
62179;SDS011;48172;53.374;10.722;2022-10-31T01:21:54;5.97;;;5.35;;
62179;SDS011;48172;53.374;10.722;2022-10-31T01:24:21;5.50;;;5.00;;
62179;SDS011;48172;53.374;10.722;2022-10-31T01:26:47;5.22;;;4.72;;
62179;SDS011;48172;53.374;10.722;2022-10-31T01:29:14;5.45;;;4.72;;
62179;SDS011;48172;53.374;10.722;2022-10-31T01:31:40;5.18;;;4.72;;
62179;SDS011;48172;53.374;10.722;2022-10-31T01:34:07;5.00;;;4.50;;
62179;SDS011;48172;53.374;10.722;2022-10-31T01:36:36;4.95;;;4.55;;
62179;SDS011;48172;53.374;10.722;2022-10-31T01:39:04;5.25;;;4.78;;
62179;SDS011;48172;53.374;10.722;2022-10-31T01:41:34;5.43;;;4.93;;
62179;SDS011;48172;53.374;10.722;2022-10-31T01:44:44;4.85;;;4.38;;
62179;SDS011;48172;53.374;10.722;2022-10-31T01:50:10;4.90;;;4.40;;
62179;SDS011;48172;53.374;10.722;2022-10-31T01:55:26;4.97;;;4.47;;
62179;SDS011;48172;53.374;10.722;2022-10-31T01:58:02;5.03;;;4.55;;
62179;SDS011;48172;53.374;10.722;2022-10-31T02:00:51;5.60;;;4.90;;
62179;SDS011;48172;53.374;10.722;2022-10-31T02:03:22;4.90;;;4.40;;
62179;SDS011;48172;53.374;10.722;2022-10-31T02:05:49;5.85;;;5.28;;
62179;SDS011;48172;53.374;10.722;2022-10-31T02:10:45;5.32;;;4.82;;
62179;SDS011;48172;53.374;10.722;2022-10-31T02:13:12;6.78;;;4.95;;
62179;SDS011;48172;53.374;10.722;2022-10-31T02:15:39;4.80;;;4.30;;
62179;SDS011;48172;53.374;10.722;2022-10-31T02:18:08;5.18;;;4.68;;
62179;SDS011;48172;53.374;10.722;2022-10-31T02:23:45;5.07;;;4.35;;
62179;SDS011;48172;53.374;10.722;2022-10-31T02:26:36;4.90;;;4.50;;
62179;SDS011;48172;53.374;10.722;2022-10-31T02:37:48;5.22;;;4.72;;
62179;SDS011;48172;53.374;10.722;2022-10-31T02:40:24;4.80;;;4.40;;
62179;SDS011;48172;53.374;10.722;2022-10-31T02:45:46;5.22;;;4.65;;
62179;SDS011;48172;53.374;10.722;2022-10-31T02:48:19;4.57;;;4.18;;
62179;SDS011;48172;53.374;10.722;2022-10-31T02:50:52;6.32;;;4.63;;
62179;SDS011;48172;53.374;10.722;2022-10-31T02:53:23;4.47;;;4.07;;
62179;SDS011;48172;53.374;10.722;2022-10-31T02:58:29;4.88;;;4.40;;
62179;SDS011;48172;53.374;10.722;2022-10-31T03:06:36;6.00;;;4.82;;
62179;SDS011;48172;53.374;10.722;2022-10-31T03:12:14;4.38;;;3.97;;
62179;SDS011;48172;53.374;10.722;2022-10-31T03:17:50;4.55;;;4.15;;
62179;SDS011;48172;53.374;10.722;2022-10-31T03:20:13;5.00;;;4.57;;
62179;SDS011;48172;53.374;10.722;2022-10-31T03:22:41;4.10;;;3.80;;
62179;SDS011;48172;53.374;10.722;2022-10-31T03:25:09;4.25;;;3.85;;
62179;SDS011;48172;53.374;10.722;2022-10-31T03:27:36;4.40;;;4.00;;
62179;SDS011;48172;53.374;10.722;2022-10-31T03:30:05;4.65;;;4.25;;
62179;SDS011;48172;53.374;10.722;2022-10-31T03:32:44;4.30;;;4.00;;
62179;SDS011;48172;53.374;10.722;2022-10-31T03:35:16;4.63;;;4.22;;
62179;SDS011;48172;53.374;10.722;2022-10-31T03:37:44;4.88;;;4.45;;
62179;SDS011;48172;53.374;10.722;2022-10-31T03:40:13;4.55;;;4.15;;
62179;SDS011;48172;53.374;10.722;2022-10-31T03:42:43;4.80;;;4.38;;
62179;SDS011;48172;53.374;10.722;2022-10-31T03:45:15;4.30;;;3.90;;
62179;SDS011;48172;53.374;10.722;2022-10-31T03:47:47;5.05;;;4.55;;
62179;SDS011;48172;53.374;10.722;2022-10-31T03:50:14;4.82;;;4.38;;
62179;SDS011;48172;53.374;10.722;2022-10-31T03:52:59;4.45;;;3.97;;
62179;SDS011;48172;53.374;10.722;2022-10-31T03:55:32;5.20;;;4.45;;
62179;SDS011;48172;53.374;10.722;2022-10-31T03:58:08;5.57;;;4.63;;
62179;SDS011;48172;53.374;10.722;2022-10-31T04:00:38;4.53;;;4.13;;
62179;SDS011;48172;53.374;10.722;2022-10-31T04:03:15;4.60;;;4.20;;
62179;SDS011;48172;53.374;10.722;2022-10-31T04:05:45;4.40;;;4.00;;
62179;SDS011;48172;53.374;10.722;2022-10-31T04:08:15;5.07;;;4.03;;
62179;SDS011;48172;53.374;10.722;2022-10-31T04:10:45;4.65;;;4.25;;
62179;SDS011;48172;53.374;10.722;2022-10-31T04:13:16;4.30;;;3.90;;
62179;SDS011;48172;53.374;10.722;2022-10-31T04:15:46;4.93;;;4.43;;
62179;SDS011;48172;53.374;10.722;2022-10-31T04:18:14;4.78;;;4.32;;
62179;SDS011;48172;53.374;10.722;2022-10-31T04:20:41;4.60;;;4.13;;
62179;SDS011;48172;53.374;10.722;2022-10-31T04:23:22;4.03;;;3.72;;
62179;SDS011;48172;53.374;10.722;2022-10-31T04:25:51;4.20;;;3.80;;
62179;SDS011;48172;53.374;10.722;2022-10-31T04:28:17;4.40;;;4.00;;
62179;SDS011;48172;53.374;10.722;2022-10-31T04:30:49;4.47;;;4.00;;
62179;SDS011;48172;53.374;10.722;2022-10-31T04:33:16;4.93;;;4.35;;
62179;SDS011;48172;53.374;10.722;2022-10-31T04:35:42;4.35;;;3.95;;
62179;SDS011;48172;53.374;10.722;2022-10-31T04:38:09;4.53;;;3.60;;
62179;SDS011;48172;53.374;10.722;2022-10-31T04:40:35;4.40;;;3.85;;
62179;SDS011;48172;53.374;10.722;2022-10-31T04:43:02;4.78;;;4.25;;
62179;SDS011;48172;53.374;10.722;2022-10-31T04:45:29;4.75;;;4.03;;
62179;SDS011;48172;53.374;10.722;2022-10-31T04:47:55;4.50;;;4.10;;
62179;SDS011;48172;53.374;10.722;2022-10-31T04:50:22;4.30;;;3.90;;
62179;SDS011;48172;53.374;10.722;2022-10-31T04:52:49;4.53;;;4.07;;
62179;SDS011;48172;53.374;10.722;2022-10-31T04:55:15;5.78;;;3.47;;
62179;SDS011;48172;53.374;10.722;2022-10-31T04:57:45;4.40;;;4.00;;
62179;SDS011;48172;53.374;10.722;2022-10-31T05:00:14;4.43;;;3.97;;
62179;SDS011;48172;53.374;10.722;2022-10-31T05:02:46;4.35;;;3.95;;
62179;SDS011;48172;53.374;10.722;2022-10-31T05:05:18;5.25;;;3.90;;
62179;SDS011;48172;53.374;10.722;2022-10-31T05:07:46;4.40;;;4.00;;
62179;SDS011;48172;53.374;10.722;2022-10-31T05:10:14;4.97;;;4.47;;
62179;SDS011;48172;53.374;10.722;2022-10-31T05:12:46;4.10;;;3.80;;
62179;SDS011;48172;53.374;10.722;2022-10-31T05:15:14;4.43;;;3.75;;
62179;SDS011;48172;53.374;10.722;2022-10-31T05:17:41;4.20;;;3.80;;
62179;SDS011;48172;53.374;10.722;2022-10-31T05:20:08;4.60;;;3.78;;
62179;SDS011;48172;53.374;10.722;2022-10-31T05:22:34;4.30;;;3.88;;
62179;SDS011;48172;53.374;10.722;2022-10-31T05:25:01;4.63;;;3.95;;
62179;SDS011;48172;53.374;10.722;2022-10-31T05:27:27;4.45;;;4.05;;
62179;SDS011;48172;53.374;10.722;2022-10-31T05:29:54;4.65;;;3.65;;
62179;SDS011;48172;53.374;10.722;2022-10-31T05:32:20;4.05;;;3.67;;
62179;SDS011;48172;53.374;10.722;2022-10-31T05:34:47;4.43;;;3.92;;
62179;SDS011;48172;53.374;10.722;2022-10-31T05:37:13;4.22;;;3.75;;
62179;SDS011;48172;53.374;10.722;2022-10-31T05:39:40;4.10;;;3.70;;
62179;SDS011;48172;53.374;10.722;2022-10-31T05:42:06;3.88;;;3.47;;
62179;SDS011;48172;53.374;10.722;2022-10-31T05:44:32;4.45;;;3.70;;
62179;SDS011;48172;53.374;10.722;2022-10-31T05:46:59;4.30;;;3.90;;
62179;SDS011;48172;53.374;10.722;2022-10-31T05:49:25;3.80;;;3.50;;
62179;SDS011;48172;53.374;10.722;2022-10-31T05:51:52;4.32;;;3.92;;
62179;SDS011;48172;53.374;10.722;2022-10-31T05:54:18;4.30;;;3.90;;
62179;SDS011;48172;53.374;10.722;2022-10-31T05:56:45;4.20;;;3.80;;
62179;SDS011;48172;53.374;10.722;2022-10-31T05:59:11;4.40;;;4.00;;
62179;SDS011;48172;53.374;10.722;2022-10-31T06:01:37;4.03;;;3.63;;
62179;SDS011;48172;53.374;10.722;2022-10-31T06:04:04;4.38;;;3.97;;
62179;SDS011;48172;53.374;10.722;2022-10-31T06:06:30;4.25;;;3.85;;
62179;SDS011;48172;53.374;10.722;2022-10-31T06:08:57;4.32;;;3.92;;
62179;SDS011;48172;53.374;10.722;2022-10-31T06:11:23;4.03;;;3.63;;
62179;SDS011;48172;53.374;10.722;2022-10-31T06:13:50;4.20;;;3.80;;
62179;SDS011;48172;53.374;10.722;2022-10-31T06:16:16;4.03;;;3.63;;
62179;SDS011;48172;53.374;10.722;2022-10-31T06:18:43;3.75;;;3.45;;
62179;SDS011;48172;53.374;10.722;2022-10-31T06:21:09;4.30;;;3.88;;
62179;SDS011;48172;53.374;10.722;2022-10-31T06:23:40;4.47;;;3.95;;
62179;SDS011;48172;53.374;10.722;2022-10-31T06:26:06;3.80;;;3.50;;
62179;SDS011;48172;53.374;10.722;2022-10-31T06:28:32;4.22;;;3.83;;
62179;SDS011;48172;53.374;10.722;2022-10-31T06:30:59;4.53;;;4.10;;
62179;SDS011;48172;53.374;10.722;2022-10-31T06:33:25;3.90;;;3.60;;
62179;SDS011;48172;53.374;10.722;2022-10-31T06:35:52;4.75;;;3.92;;
62179;SDS011;48172;53.374;10.722;2022-10-31T06:38:18;4.22;;;3.60;;
62179;SDS011;48172;53.374;10.722;2022-10-31T06:40:44;3.75;;;3.45;;
62179;SDS011;48172;53.374;10.722;2022-10-31T06:43:11;3.63;;;3.25;;
62179;SDS011;48172;53.374;10.722;2022-10-31T06:45:37;4.15;;;3.75;;
62179;SDS011;48172;53.374;10.722;2022-10-31T06:48:04;3.85;;;3.55;;
62179;SDS011;48172;53.374;10.722;2022-10-31T06:50:47;4.10;;;3.70;;
62179;SDS011;48172;53.374;10.722;2022-10-31T06:53:13;3.90;;;3.60;;
62179;SDS011;48172;53.374;10.722;2022-10-31T06:55:41;4.43;;;3.65;;
62179;SDS011;48172;53.374;10.722;2022-10-31T06:58:08;4.05;;;3.65;;
62179;SDS011;48172;53.374;10.722;2022-10-31T07:00:36;5.45;;;3.58;;
62179;SDS011;48172;53.374;10.722;2022-10-31T07:03:10;4.18;;;3.40;;
62179;SDS011;48172;53.374;10.722;2022-10-31T07:05:38;4.03;;;3.55;;
62179;SDS011;48172;53.374;10.722;2022-10-31T07:08:06;4.22;;;3.30;;
62179;SDS011;48172;53.374;10.722;2022-10-31T07:10:35;4.50;;;3.42;;
62179;SDS011;48172;53.374;10.722;2022-10-31T07:13:06;3.85;;;3.45;;
62179;SDS011;48172;53.374;10.722;2022-10-31T07:15:37;3.95;;;3.20;;
62179;SDS011;48172;53.374;10.722;2022-10-31T07:18:06;4.03;;;3.30;;
62179;SDS011;48172;53.374;10.722;2022-10-31T07:20:35;3.85;;;3.42;;
62179;SDS011;48172;53.374;10.722;2022-10-31T07:23:01;4.38;;;3.40;;
62179;SDS011;48172;53.374;10.722;2022-10-31T07:25:29;3.85;;;3.45;;
62179;SDS011;48172;53.374;10.722;2022-10-31T07:27:56;3.65;;;3.00;;
62179;SDS011;48172;53.374;10.722;2022-10-31T07:30:22;3.40;;;3.10;;
62179;SDS011;48172;53.374;10.722;2022-10-31T07:32:49;3.75;;;3.38;;
62179;SDS011;48172;53.374;10.722;2022-10-31T07:35:17;3.78;;;3.40;;
62179;SDS011;48172;53.374;10.722;2022-10-31T07:37:46;4.75;;;3.50;;
62179;SDS011;48172;53.374;10.722;2022-10-31T07:40:13;3.25;;;2.95;;
62179;SDS011;48172;53.374;10.722;2022-10-31T07:42:43;3.80;;;3.40;;
62179;SDS011;48172;53.374;10.722;2022-10-31T07:45:12;3.38;;;3.08;;
62179;SDS011;48172;53.374;10.722;2022-10-31T07:50:08;3.83;;;3.50;;
62179;SDS011;48172;53.374;10.722;2022-10-31T07:52:36;3.88;;;3.45;;
62179;SDS011;48172;53.374;10.722;2022-10-31T07:55:03;4.03;;;2.97;;
62179;SDS011;48172;53.374;10.722;2022-10-31T07:57:30;3.63;;;3.33;;
62179;SDS011;48172;53.374;10.722;2022-10-31T08:00:00;3.45;;;3.15;;
62179;SDS011;48172;53.374;10.722;2022-10-31T08:02:26;3.38;;;3.08;;
62179;SDS011;48172;53.374;10.722;2022-10-31T08:04:53;4.82;;;3.60;;
62179;SDS011;48172;53.374;10.722;2022-10-31T08:09:52;3.85;;;3.35;;
62179;SDS011;48172;53.374;10.722;2022-10-31T08:12:19;3.70;;;3.25;;
62179;SDS011;48172;53.374;10.722;2022-10-31T08:14:46;4.95;;;3.70;;
62179;SDS011;48172;53.374;10.722;2022-10-31T08:17:12;3.65;;;3.05;;
62179;SDS011;48172;53.374;10.722;2022-10-31T08:19:39;5.00;;;3.63;;
62179;SDS011;48172;53.374;10.722;2022-10-31T08:22:05;3.92;;;3.30;;
62179;SDS011;48172;53.374;10.722;2022-10-31T08:24:31;3.92;;;3.13;;
62179;SDS011;48172;53.374;10.722;2022-10-31T08:26:58;5.07;;;3.45;;
62179;SDS011;48172;53.374;10.722;2022-10-31T08:29:25;3.58;;;3.17;;
62179;SDS011;48172;53.374;10.722;2022-10-31T08:31:51;3.88;;;3.03;;
62179;SDS011;48172;53.374;10.722;2022-10-31T08:34:17;4.10;;;3.28;;
62179;SDS011;48172;53.374;10.722;2022-10-31T08:36:44;3.40;;;2.97;;
62179;SDS011;48172;53.374;10.722;2022-10-31T08:39:12;3.50;;;3.20;;
62179;SDS011;48172;53.374;10.722;2022-10-31T08:41:38;3.38;;;2.80;;
62179;SDS011;48172;53.374;10.722;2022-10-31T08:44:05;4.20;;;3.17;;
62179;SDS011;48172;53.374;10.722;2022-10-31T08:46:31;3.38;;;3.08;;
62179;SDS011;48172;53.374;10.722;2022-10-31T08:48:58;4.25;;;3.30;;
62179;SDS011;48172;53.374;10.722;2022-10-31T08:51:25;3.92;;;3.30;;
62179;SDS011;48172;53.374;10.722;2022-10-31T08:53:51;3.83;;;3.20;;
62179;SDS011;48172;53.374;10.722;2022-10-31T08:56:18;3.55;;;3.22;;
62179;SDS011;48172;53.374;10.722;2022-10-31T08:58:44;3.65;;;2.95;;
62179;SDS011;48172;53.374;10.722;2022-10-31T09:01:11;3.58;;;3.28;;
62179;SDS011;48172;53.374;10.722;2022-10-31T09:03:38;3.40;;;2.92;;
62179;SDS011;48172;53.374;10.722;2022-10-31T09:06:04;4.35;;;2.75;;
62179;SDS011;48172;53.374;10.722;2022-10-31T09:08:35;5.78;;;3.00;;
62179;SDS011;48172;53.374;10.722;2022-10-31T09:11:02;3.70;;;3.40;;
62179;SDS011;48172;53.374;10.722;2022-10-31T09:13:29;4.93;;;3.15;;
62179;SDS011;48172;53.374;10.722;2022-10-31T09:15:56;3.40;;;3.00;;
62179;SDS011;48172;53.374;10.722;2022-10-31T09:18:24;4.40;;;2.97;;
62179;SDS011;48172;53.374;10.722;2022-10-31T09:20:54;4.18;;;3.63;;
62179;SDS011;48172;53.374;10.722;2022-10-31T09:23:23;4.15;;;2.92;;
62179;SDS011;48172;53.374;10.722;2022-10-31T09:25:50;3.70;;;3.13;;
62179;SDS011;48172;53.374;10.722;2022-10-31T09:28:19;4.30;;;3.22;;
62179;SDS011;48172;53.374;10.722;2022-10-31T09:30:48;3.05;;;2.75;;
62179;SDS011;48172;53.374;10.722;2022-10-31T09:33:16;4.03;;;3.30;;
62179;SDS011;48172;53.374;10.722;2022-10-31T09:35:44;3.47;;;2.90;;
62179;SDS011;48172;53.374;10.722;2022-10-31T09:38:14;3.53;;;3.00;;
62179;SDS011;48172;53.374;10.722;2022-10-31T09:40:43;3.40;;;3.10;;
62179;SDS011;48172;53.374;10.722;2022-10-31T09:54:48;3.28;;;2.97;;
62179;SDS011;48172;53.374;10.722;2022-10-31T09:57:19;3.55;;;3.25;;
62179;SDS011;48172;53.374;10.722;2022-10-31T09:59:51;3.10;;;2.80;;
62179;SDS011;48172;53.374;10.722;2022-10-31T10:02:26;3.22;;;2.90;;
62179;SDS011;48172;53.374;10.722;2022-10-31T10:04:59;4.38;;;3.17;;
62179;SDS011;48172;53.374;10.722;2022-10-31T10:07:37;4.07;;;3.03;;
62179;SDS011;48172;53.374;10.722;2022-10-31T10:10:12;3.22;;;2.92;;
62179;SDS011;48172;53.374;10.722;2022-10-31T10:13:02;3.30;;;3.00;;
62179;SDS011;48172;53.374;10.722;2022-10-31T10:15:55;3.67;;;3.22;;
62179;SDS011;48172;53.374;10.722;2022-10-31T10:26:35;4.20;;;3.80;;
62179;SDS011;48172;53.374;10.722;2022-10-31T10:29:20;3.55;;;3.22;;
62179;SDS011;48172;53.374;10.722;2022-10-31T10:31:57;3.42;;;3.13;;
62179;SDS011;48172;53.374;10.722;2022-10-31T10:37:11;4.05;;;2.95;;
62179;SDS011;48172;53.374;10.722;2022-10-31T10:39:44;3.45;;;3.15;;
62179;SDS011;48172;53.374;10.722;2022-10-31T10:42:14;4.65;;;2.90;;
62179;SDS011;48172;53.374;10.722;2022-10-31T10:45:13;3.47;;;2.97;;
62179;SDS011;48172;53.374;10.722;2022-10-31T10:48:05;4.07;;;3.28;;
62179;SDS011;48172;53.374;10.722;2022-10-31T10:50:50;3.30;;;2.97;;
62179;SDS011;48172;53.374;10.722;2022-10-31T10:53:25;3.15;;;2.85;;
62179;SDS011;48172;53.374;10.722;2022-10-31T10:56:09;3.25;;;2.92;;
62179;SDS011;48172;53.374;10.722;2022-10-31T10:58:41;3.63;;;3.33;;
62179;SDS011;48172;53.374;10.722;2022-10-31T11:01:10;3.97;;;3.08;;
62179;SDS011;48172;53.374;10.722;2022-10-31T11:03:45;3.33;;;3.00;;
62179;SDS011;48172;53.374;10.722;2022-10-31T11:06:21;3.42;;;3.10;;
62179;SDS011;48172;53.374;10.722;2022-10-31T11:08:52;4.13;;;3.25;;
62179;SDS011;48172;53.374;10.722;2022-10-31T11:13:54;3.97;;;3.53;;
62179;SDS011;48172;53.374;10.722;2022-10-31T11:18:53;4.60;;;3.70;;
62179;SDS011;48172;53.374;10.722;2022-10-31T11:21:32;3.85;;;3.30;;
62179;SDS011;48172;53.374;10.722;2022-10-31T11:26:37;3.92;;;3.47;;
62179;SDS011;48172;53.374;10.722;2022-10-31T11:29:04;5.05;;;3.55;;
62179;SDS011;48172;53.374;10.722;2022-10-31T11:31:34;4.30;;;3.55;;
62179;SDS011;48172;53.374;10.722;2022-10-31T11:34:05;5.72;;;3.20;;
62179;SDS011;48172;53.374;10.722;2022-10-31T11:36:39;4.53;;;3.10;;
62179;SDS011;48172;53.374;10.722;2022-10-31T11:39:22;4.80;;;3.60;;
62179;SDS011;48172;53.374;10.722;2022-10-31T11:41:51;4.10;;;3.10;;
62179;SDS011;48172;53.374;10.722;2022-10-31T11:44:23;4.38;;;3.58;;
62179;SDS011;48172;53.374;10.722;2022-10-31T11:47:14;4.57;;;3.53;;
62179;SDS011;48172;53.374;10.722;2022-10-31T11:49:41;3.83;;;3.42;;
62179;SDS011;48172;53.374;10.722;2022-10-31T11:52:14;5.03;;;3.45;;
62179;SDS011;48172;53.374;10.722;2022-10-31T11:54:53;3.45;;;3.15;;
62179;SDS011;48172;53.374;10.722;2022-10-31T11:57:42;3.80;;;3.38;;
62179;SDS011;48172;53.374;10.722;2022-10-31T12:03:11;3.88;;;3.05;;
62179;SDS011;48172;53.374;10.722;2022-10-31T12:05:42;4.47;;;3.78;;
62179;SDS011;48172;53.374;10.722;2022-10-31T12:08:12;4.13;;;3.72;;
62179;SDS011;48172;53.374;10.722;2022-10-31T12:10:55;3.90;;;3.50;;
62179;SDS011;48172;53.374;10.722;2022-10-31T12:13:52;3.75;;;3.20;;
62179;SDS011;48172;53.374;10.722;2022-10-31T12:19:14;3.65;;;3.30;;
62179;SDS011;48172;53.374;10.722;2022-10-31T12:22:11;4.05;;;3.40;;
62179;SDS011;48172;53.374;10.722;2022-10-31T12:30:48;4.35;;;3.53;;
62179;SDS011;48172;53.374;10.722;2022-10-31T12:36:29;3.75;;;3.30;;
62179;SDS011;48172;53.374;10.722;2022-10-31T12:42:17;3.67;;;3.22;;
62179;SDS011;48172;53.374;10.722;2022-10-31T12:52:52;4.18;;;3.58;;
62179;SDS011;48172;53.374;10.722;2022-10-31T12:58:01;4.63;;;3.55;;
62179;SDS011;48172;53.374;10.722;2022-10-31T13:00:35;4.18;;;3.78;;
62179;SDS011;48172;53.374;10.722;2022-10-31T13:05:47;4.15;;;3.40;;
62179;SDS011;48172;53.374;10.722;2022-10-31T13:08:40;4.25;;;3.70;;
62179;SDS011;48172;53.374;10.722;2022-10-31T13:11:10;3.58;;;3.22;;
62179;SDS011;48172;53.374;10.722;2022-10-31T13:13:43;4.30;;;3.53;;
62179;SDS011;48172;53.374;10.722;2022-10-31T13:16:18;4.00;;;3.40;;
62179;SDS011;48172;53.374;10.722;2022-10-31T13:18:47;5.25;;;3.75;;
62179;SDS011;48172;53.374;10.722;2022-10-31T13:21:21;3.67;;;3.38;;
62179;SDS011;48172;53.374;10.722;2022-10-31T13:23:50;3.60;;;3.30;;
62179;SDS011;48172;53.374;10.722;2022-10-31T13:26:23;4.35;;;3.95;;
62179;SDS011;48172;53.374;10.722;2022-10-31T13:29:08;3.63;;;3.33;;
62179;SDS011;48172;53.374;10.722;2022-10-31T13:31:41;4.40;;;3.55;;
62179;SDS011;48172;53.374;10.722;2022-10-31T13:34:10;3.97;;;3.58;;
62179;SDS011;48172;53.374;10.722;2022-10-31T13:36:48;4.03;;;3.50;;
62179;SDS011;48172;53.374;10.722;2022-10-31T13:39:22;4.40;;;3.47;;
62179;SDS011;48172;53.374;10.722;2022-10-31T13:41:59;4.38;;;3.90;;
62179;SDS011;48172;53.374;10.722;2022-10-31T13:44:27;3.92;;;3.33;;
62179;SDS011;48172;53.374;10.722;2022-10-31T13:46:59;3.38;;;3.08;;
62179;SDS011;48172;53.374;10.722;2022-10-31T13:54:38;3.70;;;3.33;;
62179;SDS011;48172;53.374;10.722;2022-10-31T13:57:07;3.90;;;3.13;;
62179;SDS011;48172;53.374;10.722;2022-10-31T13:59:46;3.92;;;3.42;;
62179;SDS011;48172;53.374;10.722;2022-10-31T14:02:16;4.07;;;3.45;;
62179;SDS011;48172;53.374;10.722;2022-10-31T14:04:50;3.28;;;2.97;;
62179;SDS011;48172;53.374;10.722;2022-10-31T14:07:21;4.22;;;3.70;;
62179;SDS011;48172;53.374;10.722;2022-10-31T14:09:56;4.10;;;3.40;;
62179;SDS011;48172;53.374;10.722;2022-10-31T14:17:51;3.70;;;3.33;;
62179;SDS011;48172;53.374;10.722;2022-10-31T14:20:22;3.33;;;3.03;;
62179;SDS011;48172;53.374;10.722;2022-10-31T14:22:58;3.70;;;3.25;;
62179;SDS011;48172;53.374;10.722;2022-10-31T14:25:36;3.83;;;3.13;;
62179;SDS011;48172;53.374;10.722;2022-10-31T14:28:17;3.63;;;3.28;;
62179;SDS011;48172;53.374;10.722;2022-10-31T14:30:53;3.90;;;3.13;;
62179;SDS011;48172;53.374;10.722;2022-10-31T14:33:22;3.17;;;2.88;;
62179;SDS011;48172;53.374;10.722;2022-10-31T14:38:36;3.70;;;3.25;;
62179;SDS011;48172;53.374;10.722;2022-10-31T14:41:21;3.28;;;2.97;;
62179;SDS011;48172;53.374;10.722;2022-10-31T14:44:04;3.45;;;3.03;;
62179;SDS011;48172;53.374;10.722;2022-10-31T14:49:27;3.22;;;2.90;;
62179;SDS011;48172;53.374;10.722;2022-10-31T14:52:00;3.40;;;3.10;;
62179;SDS011;48172;53.374;10.722;2022-10-31T14:54:33;3.38;;;3.08;;
62179;SDS011;48172;53.374;10.722;2022-10-31T14:57:06;4.50;;;3.33;;
62179;SDS011;48172;53.374;10.722;2022-10-31T14:59:40;3.17;;;2.88;;
62179;SDS011;48172;53.374;10.722;2022-10-31T15:02:14;3.50;;;3.10;;
62179;SDS011;48172;53.374;10.722;2022-10-31T15:04:46;3.95;;;3.35;;
62179;SDS011;48172;53.374;10.722;2022-10-31T15:07:18;3.58;;;2.80;;
62179;SDS011;48172;53.374;10.722;2022-10-31T15:09:57;3.90;;;3.33;;
62179;SDS011;48172;53.374;10.722;2022-10-31T15:12:32;3.65;;;3.08;;
62179;SDS011;48172;53.374;10.722;2022-10-31T15:18:22;2.90;;;2.63;;
62179;SDS011;48172;53.374;10.722;2022-10-31T15:20:44;3.13;;;2.83;;
62179;SDS011;48172;53.374;10.722;2022-10-31T15:23:15;3.28;;;2.80;;
62179;SDS011;48172;53.374;10.722;2022-10-31T15:25:46;2.95;;;2.50;;
62179;SDS011;48172;53.374;10.722;2022-10-31T15:28:21;3.50;;;3.17;;
62179;SDS011;48172;53.374;10.722;2022-10-31T15:30:53;4.03;;;3.17;;
62179;SDS011;48172;53.374;10.722;2022-10-31T15:33:22;2.85;;;2.53;;
62179;SDS011;48172;53.374;10.722;2022-10-31T15:35:54;2.95;;;2.70;;
62179;SDS011;48172;53.374;10.722;2022-10-31T15:38:25;3.03;;;2.72;;
62179;SDS011;48172;53.374;10.722;2022-10-31T15:41:06;3.25;;;2.95;;
62179;SDS011;48172;53.374;10.722;2022-10-31T15:43:48;3.03;;;2.72;;
62179;SDS011;48172;53.374;10.722;2022-10-31T15:46:14;2.78;;;2.58;;
62179;SDS011;48172;53.374;10.722;2022-10-31T15:48:44;2.92;;;2.60;;
62179;SDS011;48172;53.374;10.722;2022-10-31T15:51:13;3.30;;;2.83;;
62179;SDS011;48172;53.374;10.722;2022-10-31T15:53:47;3.03;;;2.72;;
62179;SDS011;48172;53.374;10.722;2022-10-31T15:56:19;3.15;;;2.85;;
62179;SDS011;48172;53.374;10.722;2022-10-31T15:58:48;3.45;;;2.90;;
62179;SDS011;48172;53.374;10.722;2022-10-31T16:01:21;2.88;;;2.58;;
62179;SDS011;48172;53.374;10.722;2022-10-31T16:06:36;3.88;;;3.08;;
62179;SDS011;48172;53.374;10.722;2022-10-31T16:09:03;3.58;;;2.92;;
62179;SDS011;48172;53.374;10.722;2022-10-31T16:11:44;3.45;;;2.90;;
62179;SDS011;48172;53.374;10.722;2022-10-31T16:16:44;2.88;;;2.60;;
62179;SDS011;48172;53.374;10.722;2022-10-31T16:22:28;3.10;;;2.40;;
62179;SDS011;48172;53.374;10.722;2022-10-31T16:24:59;3.00;;;2.70;;
62179;SDS011;48172;53.374;10.722;2022-10-31T16:27:34;3.13;;;2.83;;
62179;SDS011;48172;53.374;10.722;2022-10-31T16:30:23;3.03;;;2.72;;
62179;SDS011;48172;53.374;10.722;2022-10-31T16:32:55;3.10;;;2.80;;
62179;SDS011;48172;53.374;10.722;2022-10-31T16:35:31;3.10;;;2.80;;
62179;SDS011;48172;53.374;10.722;2022-10-31T16:37:58;3.65;;;2.90;;
62179;SDS011;48172;53.374;10.722;2022-10-31T16:40:24;3.28;;;2.70;;
62179;SDS011;48172;53.374;10.722;2022-10-31T16:42:51;2.97;;;2.67;;
62179;SDS011;48172;53.374;10.722;2022-10-31T16:45:29;3.65;;;2.72;;
62179;SDS011;48172;53.374;10.722;2022-10-31T16:48:04;3.13;;;2.75;;
62179;SDS011;48172;53.374;10.722;2022-10-31T16:50:32;3.63;;;3.10;;
62179;SDS011;48172;53.374;10.722;2022-10-31T16:52:59;3.20;;;2.40;;
62179;SDS011;48172;53.374;10.722;2022-10-31T16:55:41;2.45;;;2.25;;
62179;SDS011;48172;53.374;10.722;2022-10-31T16:58:15;2.95;;;2.55;;
62179;SDS011;48172;53.374;10.722;2022-10-31T17:00:44;3.13;;;2.83;;
62179;SDS011;48172;53.374;10.722;2022-10-31T17:03:12;2.58;;;2.35;;
62179;SDS011;48172;53.374;10.722;2022-10-31T17:05:38;4.10;;;3.10;;